createdAt,value
2019-05-07T00:01:52.629Z,64.58
2019-05-07T00:04:22.609Z,64.68
2019-05-07T00:06:52.872Z,64.85
2019-05-07T00:09:23.277Z,64.89
2019-05-07T00:11:53.518Z,65.00
2019-05-07T00:14:24.292Z,64.90
2019-05-07T00:16:54.129Z,65.14
2019-05-07T00:19:24.150Z,65.17
2019-05-07T00:21:53.973Z,65.15
2019-05-07T00:24:23.499Z,65.16
2019-05-07T00:26:53.371Z,65.47
2019-05-07T00:29:22.927Z,65.25
2019-05-07T00:31:52.402Z,65.43
2019-05-07T00:34:23.854Z,65.29
2019-05-07T00:37:02.157Z,65.48
2019-05-07T00:39:33.364Z,65.54
2019-05-07T00:42:16.461Z,65.55
2019-05-07T00:45:21.606Z,65.60
2019-05-07T00:47:34.776Z,65.48
2019-05-07T00:50:07.912Z,65.33
2019-05-07T00:52:37.370Z,65.51
2019-05-07T00:55:07.954Z,65.56
2019-05-07T00:57:37.415Z,65.49
2019-05-07T01:00:08.716Z,65.54
2019-05-07T01:02:38.282Z,65.64
2019-05-07T01:05:07.867Z,65.63
2019-05-07T01:07:37.320Z,65.74
2019-05-07T01:10:09.176Z,65.71
2019-05-07T01:12:38.659Z,65.75
2019-05-07T01:15:08.371Z,65.85
2019-05-07T01:17:37.933Z,65.84
2019-05-07T01:20:07.461Z,65.81
2019-05-07T01:22:36.947Z,65.79
2019-05-07T01:25:07.208Z,65.74
2019-05-07T01:27:36.694Z,65.75
2019-05-07T01:30:07.301Z,65.79
2019-05-07T01:32:44.067Z,65.84
2019-05-07T01:35:15.312Z,65.75
2019-05-07T01:37:44.780Z,65.73
2019-05-07T01:40:14.278Z,65.78
2019-05-07T01:42:43.738Z,65.74
2019-05-07T01:45:15.175Z,65.60
2019-05-07T01:47:44.666Z,65.64
2019-05-07T01:50:14.268Z,65.58
2019-05-07T01:52:43.768Z,65.69
2019-05-07T01:55:13.359Z,65.67
2019-05-07T01:57:42.838Z,65.74
2019-05-07T02:00:13.171Z,65.59
2019-05-07T02:02:51.951Z,65.64
2019-05-07T02:05:32.667Z,65.68
2019-05-07T02:08:04.100Z,65.65
2019-05-07T02:10:35.234Z,65.61
2019-05-07T02:13:04.764Z,65.68
2019-05-07T02:15:34.237Z,65.63
2019-05-07T02:18:03.890Z,65.64
2019-05-07T02:20:33.337Z,65.59
2019-05-07T02:23:03.029Z,65.71
2019-05-07T02:25:32.940Z,65.76
2019-05-07T02:28:02.548Z,65.69
2019-05-07T02:30:35.037Z,65.78
2019-05-07T02:33:03.910Z,65.72
2019-05-07T02:35:33.787Z,65.81
2019-05-07T02:38:04.978Z,65.90
2019-05-07T02:40:38.769Z,65.90
2019-05-07T02:43:08.510Z,65.83
2019-05-07T02:45:43.970Z,65.82
2019-05-07T02:48:14.742Z,65.75
2019-05-07T02:50:45.861Z,65.71
2019-05-07T02:53:18.247Z,65.79
2019-05-07T02:55:52.663Z,65.76
2019-05-07T02:58:23.847Z,65.84
2019-05-07T03:00:53.131Z,65.86
2019-05-07T03:03:24.741Z,65.74
2019-05-07T03:05:54.259Z,65.82
2019-05-07T03:08:27.370Z,65.89
2019-05-07T03:10:55.200Z,65.87
2019-05-07T03:13:24.773Z,65.82
2019-05-07T03:15:54.375Z,65.92
2019-05-07T03:18:24.914Z,65.76
2019-05-07T03:21:03.457Z,65.81
2019-05-07T03:23:34.712Z,65.58
2019-05-07T03:26:08.606Z,65.35
2019-05-07T03:28:53.726Z,65.32
2019-05-07T03:31:26.879Z,65.27
2019-05-07T03:33:56.532Z,65.23
2019-05-07T03:36:46.689Z,65.36
2019-05-07T03:39:14.171Z,65.38
2019-05-07T03:41:43.296Z,65.40
2019-05-07T03:44:24.818Z,65.45
2019-05-07T03:47:02.382Z,65.50
2019-05-07T03:49:36.354Z,65.53
2019-05-07T03:52:05.896Z,65.49
2019-05-07T03:54:35.380Z,65.67
2019-05-07T03:57:10.843Z,65.61
2019-05-07T03:59:36.060Z,65.73
2019-05-07T04:02:05.881Z,65.74
2019-05-07T04:04:35.425Z,65.84
2019-05-07T04:07:05.018Z,65.94
2019-05-07T04:09:34.481Z,65.88
2019-05-07T04:12:04.315Z,65.69
2019-05-07T04:14:34.658Z,65.76
2019-05-07T04:17:14.559Z,65.65
2019-05-07T04:19:35.588Z,65.74
2019-05-07T04:22:05.034Z,65.76
2019-05-07T04:24:48.032Z,65.74
2019-05-07T04:27:37.126Z,65.75
2019-05-07T04:30:07.975Z,65.81
2019-05-07T04:32:43.387Z,65.74
2019-05-07T04:35:33.443Z,65.76
2019-05-07T04:38:06.712Z,65.72
2019-05-07T04:40:34.091Z,65.68
2019-05-07T04:43:03.613Z,65.67
2019-05-07T04:45:33.808Z,65.71
2019-05-07T04:48:03.779Z,65.78
2019-05-07T04:50:43.202Z,65.79
2019-05-07T04:53:06.156Z,65.82
2019-05-07T04:55:35.639Z,65.87
2019-05-07T04:58:08.906Z,65.84
2019-05-07T05:00:36.376Z,65.97
2019-05-07T05:03:14.018Z,65.90
2019-05-07T05:05:43.799Z,66.10
2019-05-07T05:08:13.610Z,65.99
2019-05-07T05:10:43.522Z,66.09
2019-05-07T05:13:13.287Z,66.42
2019-05-07T05:15:43.268Z,66.81
2019-05-07T05:18:13.090Z,66.90
2019-05-07T05:20:44.531Z,67.26
2019-05-07T05:23:32.258Z,67.70
2019-05-07T05:26:02.020Z,68.07
2019-05-07T05:28:32.373Z,68.14
2019-05-07T05:31:03.585Z,68.15
2019-05-07T05:33:33.045Z,68.43
2019-05-07T05:36:03.136Z,68.14
2019-05-07T05:38:33.126Z,68.30
2019-05-07T05:41:02.985Z,68.23
2019-05-07T05:43:42.865Z,68.02
2019-05-07T05:46:14.011Z,67.91
2019-05-07T05:48:43.495Z,67.74
2019-05-07T05:51:14.659Z,67.74
2019-05-07T05:53:54.523Z,67.47
2019-05-07T05:56:42.652Z,67.51
2019-05-07T05:59:25.369Z,67.42
2019-05-07T06:01:52.047Z,66.95
2019-05-07T06:04:37.944Z,66.76
2019-05-07T06:07:18.059Z,65.99
2019-05-07T06:09:49.176Z,66.02
2019-05-07T06:12:29.209Z,66.17
2019-05-07T06:15:01.790Z,65.77
2019-05-07T06:17:33.047Z,65.79
2019-05-07T06:20:06.945Z,65.23
2019-05-07T06:22:49.956Z,65.22
2019-05-07T06:25:24.577Z,64.75
2019-05-07T06:27:52.678Z,65.05
2019-05-07T06:30:22.862Z,65.17
2019-05-07T06:32:52.459Z,64.86
2019-05-07T06:35:22.994Z,63.99
2019-05-07T06:37:52.779Z,65.25
2019-05-07T06:40:29.382Z,64.03
2019-05-07T06:43:17.835Z,63.97
2019-05-07T06:45:57.732Z,63.34
2019-05-07T06:48:38.905Z,62.73
2019-05-07T06:50:59.231Z,62.24
2019-05-07T06:53:33.655Z,62.17
2019-05-07T06:56:04.190Z,61.44
2019-05-07T06:58:41.931Z,60.18
2019-05-07T07:01:26.422Z,60.77
2019-05-07T07:04:02.699Z,60.20
2019-05-07T07:06:34.109Z,60.32
2019-05-07T07:09:12.735Z,59.68
2019-05-07T07:11:46.912Z,58.92
2019-05-07T07:14:16.498Z,58.01
2019-05-07T07:16:46.147Z,58.86
2019-05-07T07:19:15.627Z,57.47
2019-05-07T07:21:45.203Z,57.53
2019-05-07T07:24:14.691Z,57.30
2019-05-07T07:26:44.176Z,56.95
2019-05-07T07:29:15.391Z,56.43
2019-05-07T07:31:49.281Z,56.11
2019-05-07T07:34:18.918Z,56.65
2019-05-07T07:37:05.529Z,56.04
2019-05-07T07:39:23.781Z,55.53
2019-05-07T07:41:57.340Z,55.65
2019-05-07T07:44:26.920Z,56.61
2019-05-07T07:46:56.525Z,53.33
2019-05-07T07:49:26.066Z,53.55
2019-05-07T07:51:55.532Z,53.23
2019-05-07T07:54:25.038Z,51.82
2019-05-07T07:57:02.171Z,52.33
2019-05-07T07:59:33.758Z,52.01
2019-05-07T08:02:12.440Z,50.76
2019-05-07T08:04:42.681Z,49.81
2019-05-07T08:07:12.465Z,49.98
2019-05-07T08:09:42.889Z,49.73
2019-05-07T08:12:12.893Z,49.79
2019-05-07T08:14:42.851Z,49.52
2019-05-07T08:17:13.131Z,48.00
2019-05-07T08:19:43.057Z,49.24
2019-05-07T08:22:12.903Z,48.54
2019-05-07T08:24:42.813Z,48.19
2019-05-07T08:27:15.123Z,49.73
2019-05-07T08:29:43.967Z,48.06
2019-05-07T08:32:25.209Z,47.95
2019-05-07T08:34:59.267Z,46.39
2019-05-07T08:37:28.857Z,47.62
2019-05-07T08:39:58.357Z,45.47
2019-05-07T08:42:27.945Z,46.28
2019-05-07T08:45:02.919Z,46.64
2019-05-07T08:50:12.189Z,46.33
2019-05-07T08:52:42.048Z,43.68
2019-05-07T08:55:12.543Z,44.95
2019-05-07T08:57:42.283Z,45.65
2019-05-07T09:00:13.634Z,44.48
2019-05-07T09:02:43.106Z,42.32
2019-05-07T09:05:12.819Z,42.27
2019-05-07T09:07:42.632Z,43.33
2019-05-07T09:10:12.746Z,41.04
2019-05-07T09:12:42.887Z,42.27
2019-05-07T09:15:12.884Z,41.48
2019-05-07T09:17:42.485Z,41.06
2019-05-07T09:20:12.720Z,42.61
2019-05-07T09:22:42.850Z,41.18
2019-05-07T09:25:13.159Z,41.57
2019-05-07T09:27:46.914Z,41.21
2019-05-07T09:30:19.166Z,40.56
2019-05-07T09:32:52.181Z,40.70
2019-05-07T09:35:25.902Z,41.03
2019-05-07T09:37:55.388Z,41.62
2019-05-07T09:40:24.891Z,41.74
2019-05-07T09:42:54.352Z,41.43
2019-05-07T09:45:23.858Z,41.33
2019-05-07T09:47:53.431Z,41.07
2019-05-07T09:50:23.031Z,39.97
2019-05-07T09:52:52.532Z,40.48
2019-05-07T09:55:23.347Z,41.94
2019-05-07T09:57:52.990Z,41.97
2019-05-07T10:00:23.618Z,41.19
2019-05-07T10:02:53.220Z,41.38
2019-05-07T10:05:23.063Z,41.04
2019-05-07T10:07:52.810Z,41.31
2019-05-07T10:10:22.632Z,40.49
2019-05-07T10:12:56.978Z,39.82
2019-05-07T10:15:26.641Z,40.22
2019-05-07T10:17:58.071Z,41.46
2019-05-07T10:20:27.792Z,41.28
2019-05-07T10:22:57.340Z,41.67
2019-05-07T10:25:28.456Z,40.12
2019-05-07T10:27:57.966Z,41.33
2019-05-07T10:30:27.534Z,40.64
2019-05-07T10:32:57.061Z,41.23
2019-05-07T10:35:26.599Z,42.43
2019-05-07T10:37:56.192Z,39.67
2019-05-07T10:40:26.131Z,39.18
2019-05-07T10:42:55.611Z,38.81
2019-05-07T10:45:43.023Z,39.58
2019-05-07T10:48:29.214Z,39.77
2019-05-07T10:50:58.474Z,39.38
2019-05-07T10:53:27.949Z,39.22
2019-05-07T10:55:57.521Z,38.94
2019-05-07T10:58:27.263Z,39.85
2019-05-07T11:00:56.925Z,39.70
2019-05-07T11:03:26.439Z,39.97
2019-05-07T11:05:55.917Z,40.54
2019-05-07T11:08:25.937Z,41.54
2019-05-07T11:10:55.526Z,41.24
2019-05-07T11:13:25.033Z,42.01
2019-05-07T11:16:02.487Z,42.54
2019-05-07T11:18:33.729Z,41.97
2019-05-07T11:21:03.243Z,42.32
2019-05-07T11:23:32.910Z,43.09
2019-05-07T11:26:02.730Z,42.10
2019-05-07T11:28:32.568Z,42.68
2019-05-07T11:31:02.332Z,43.23
2019-05-07T11:33:32.562Z,43.83
2019-05-07T11:36:02.360Z,42.65
2019-05-07T11:38:33.351Z,43.03
2019-05-07T11:41:03.218Z,42.73
2019-05-07T11:43:53.917Z,40.89
2019-05-07T11:46:35.228Z,42.68
2019-05-07T11:49:09.363Z,40.73
2019-05-07T11:51:47.457Z,39.91
2019-05-07T11:54:16.950Z,40.44
2019-05-07T11:56:46.441Z,39.62
2019-05-07T11:59:15.929Z,39.64
2019-05-07T12:01:48.121Z,39.99
2019-05-07T12:04:17.787Z,39.36
2019-05-07T12:06:47.345Z,39.16
2019-05-07T12:09:17.089Z,39.05
2019-05-07T12:11:46.549Z,39.16
2019-05-07T12:14:27.953Z,38.53
2019-05-07T12:16:47.301Z,39.80
2019-05-07T12:19:16.879Z,40.17
2019-05-07T12:21:46.551Z,39.14
2019-05-07T12:24:16.589Z,37.52
2019-05-07T12:26:46.221Z,37.57
2019-05-07T12:29:15.702Z,37.93
2019-05-07T12:32:04.807Z,37.39
2019-05-07T12:34:42.375Z,37.65
2019-05-07T12:37:12.400Z,38.90
2019-05-07T12:39:42.420Z,37.83
2019-05-07T12:42:12.182Z,37.88
2019-05-07T12:44:42.572Z,37.93
2019-05-07T12:47:12.245Z,37.89
2019-05-07T12:49:42.868Z,38.55
2019-05-07T12:52:17.203Z,39.13
2019-05-07T12:54:54.267Z,41.01
2019-05-07T12:57:23.834Z,40.58
2019-05-07T12:59:53.301Z,40.16
2019-05-07T13:02:37.298Z,41.41
2019-05-07T13:04:58.056Z,41.26
2019-05-07T13:07:26.716Z,40.43
2019-05-07T13:09:56.338Z,40.67
2019-05-07T13:12:25.886Z,39.56
2019-05-07T13:14:55.436Z,40.36
2019-05-07T13:17:24.973Z,40.82
2019-05-07T13:19:54.502Z,40.50
2019-05-07T13:22:23.989Z,41.47
2019-05-07T13:24:53.531Z,40.36
2019-05-07T13:27:23.101Z,39.88
2019-05-07T13:29:53.270Z,39.75
2019-05-07T13:32:24.956Z,39.17
2019-05-07T13:34:54.816Z,38.34
2019-05-07T13:37:26.067Z,38.14
2019-05-07T13:39:57.422Z,37.56
2019-05-07T13:42:44.441Z,39.18
2019-05-07T13:45:18.758Z,38.48
2019-05-07T13:47:51.799Z,36.34
2019-05-07T13:50:22.113Z,34.94
2019-05-07T13:52:51.748Z,36.53
2019-05-07T13:55:21.828Z,35.29
2019-05-07T13:57:52.375Z,34.33
2019-05-07T14:00:23.837Z,34.91
2019-05-07T14:02:54.903Z,35.26
2019-05-07T14:05:24.679Z,34.02
2019-05-07T14:07:54.336Z,35.42
2019-05-07T14:10:23.847Z,35.61
2019-05-07T14:13:06.753Z,35.15
2019-05-07T14:15:24.781Z,34.11
2019-05-07T14:17:55.016Z,34.30
2019-05-07T14:20:24.809Z,34.99
2019-05-07T14:22:54.312Z,34.36
2019-05-07T14:25:24.288Z,33.97
2019-05-07T14:27:53.765Z,34.24
2019-05-07T14:30:24.483Z,35.03
2019-05-07T14:32:53.975Z,35.45
2019-05-07T14:35:36.942Z,34.54
2019-05-07T14:38:13.675Z,33.87
2019-05-07T14:40:42.695Z,32.96
2019-05-07T14:43:25.875Z,33.62
2019-05-07T14:45:55.460Z,34.02
2019-05-07T14:48:25.178Z,34.75
2019-05-07T14:50:54.960Z,34.91
2019-05-07T14:53:24.492Z,33.61
2019-05-07T14:55:54.139Z,33.96
2019-05-07T14:58:23.731Z,34.29
2019-05-07T15:00:53.375Z,34.07
2019-05-07T15:03:23.013Z,33.77
2019-05-07T15:05:52.715Z,33.79
2019-05-07T15:08:22.417Z,33.27
2019-05-07T15:10:52.492Z,33.62
2019-05-07T15:13:22.165Z,35.15
2019-05-07T15:15:52.496Z,34.96
2019-05-07T15:18:32.079Z,34.81
2019-05-07T15:21:01.886Z,35.55
2019-05-07T15:23:36.448Z,35.50
2019-05-07T15:26:06.069Z,34.53
2019-05-07T15:28:37.269Z,34.91
2019-05-07T15:31:08.541Z,34.71
2019-05-07T15:33:38.098Z,34.24
2019-05-07T15:36:07.731Z,35.54
2019-05-07T15:38:37.385Z,34.24
2019-05-07T15:41:06.926Z,33.67
2019-05-07T15:43:36.563Z,32.92
2019-05-07T15:46:06.171Z,35.27
2019-05-07T15:48:35.822Z,34.35
2019-05-07T15:51:05.590Z,33.51
2019-05-07T15:53:36.755Z,35.20
2019-05-07T15:56:06.308Z,32.68
2019-05-07T15:58:37.357Z,33.35
2019-05-07T16:01:07.012Z,33.40
2019-05-07T16:03:46.821Z,32.29
2019-05-07T16:06:16.603Z,33.16
2019-05-07T16:08:49.187Z,31.75
2019-05-07T16:11:18.903Z,33.13
2019-05-07T16:14:03.122Z,32.45
2019-05-07T16:16:33.292Z,32.15
2019-05-07T16:19:05.800Z,33.55
2019-05-07T16:21:35.295Z,33.14
2019-05-07T16:24:04.869Z,32.34
2019-05-07T16:26:34.388Z,32.35
2019-05-07T16:29:04.638Z,32.33
2019-05-07T16:31:34.368Z,32.95
2019-05-07T16:34:03.833Z,32.78
2019-05-07T16:36:33.346Z,31.58
2019-05-07T16:39:03.435Z,32.40
2019-05-07T16:41:33.137Z,32.23
2019-05-07T16:44:03.026Z,33.29
2019-05-07T16:46:32.656Z,32.86
2019-05-07T16:49:02.438Z,32.15
2019-05-07T16:51:33.041Z,31.56
2019-05-07T16:54:03.356Z,31.00
2019-05-07T16:56:33.447Z,29.59
2019-05-07T16:59:07.482Z,28.22
2019-05-07T17:01:36.243Z,27.71
2019-05-07T17:04:06.134Z,28.10
2019-05-07T17:06:35.619Z,27.18
2019-05-07T17:09:08.033Z,27.68
2019-05-07T17:11:37.652Z,28.23
2019-05-07T17:14:07.298Z,28.40
2019-05-07T17:16:36.918Z,28.00
2019-05-07T17:19:06.917Z,28.76
2019-05-07T17:21:36.385Z,29.99
2019-05-07T17:24:05.967Z,30.41
2019-05-07T17:26:35.438Z,32.01
2019-05-07T17:29:05.164Z,31.42
2019-05-07T17:31:34.792Z,31.40
2019-05-07T17:34:04.353Z,32.54
2019-05-07T17:36:33.868Z,32.97
2019-05-07T17:39:05.300Z,36.70
2019-05-07T17:41:34.776Z,36.75
2019-05-07T17:44:04.267Z,38.56
2019-05-07T17:46:33.774Z,37.10
2019-05-07T17:49:03.353Z,37.60
2019-05-07T17:51:45.521Z,39.42
2019-05-07T17:54:16.312Z,39.47
2019-05-07T17:56:45.866Z,37.68
2019-05-07T17:59:15.394Z,38.76
2019-05-07T18:01:52.999Z,40.44
2019-05-07T18:04:22.811Z,42.24
2019-05-07T18:06:52.353Z,41.98
2019-05-07T18:09:22.592Z,42.64
2019-05-07T18:11:52.406Z,41.73
2019-05-07T18:14:22.890Z,42.83
2019-05-07T18:16:57.135Z,42.85
2019-05-07T18:19:28.337Z,44.65
2019-05-07T18:21:57.916Z,45.48
2019-05-07T18:24:27.472Z,45.10
2019-05-07T18:26:57.175Z,44.18
2019-05-07T18:29:26.699Z,44.32
2019-05-07T18:31:57.887Z,44.45
2019-05-07T18:34:27.387Z,45.25
2019-05-07T18:36:56.882Z,46.00
2019-05-07T18:39:26.387Z,45.75
2019-05-07T18:41:55.892Z,45.35
2019-05-07T18:44:25.540Z,45.37
2019-05-07T18:46:55.100Z,46.49
2019-05-07T18:49:24.660Z,46.87
2019-05-07T18:51:54.187Z,46.49
2019-05-07T18:54:30.363Z,45.94
2019-05-07T18:56:54.901Z,47.93
2019-05-07T18:59:26.055Z,47.85
2019-05-07T19:01:55.694Z,48.43
2019-05-07T19:04:25.193Z,48.30
2019-05-07T19:06:56.428Z,47.83
2019-05-07T19:09:26.069Z,48.08
2019-05-07T19:11:55.637Z,47.60
2019-05-07T19:14:25.278Z,48.24
2019-05-07T19:16:54.999Z,48.29
2019-05-07T19:19:24.679Z,48.70
2019-05-07T19:21:54.335Z,49.26
2019-05-07T19:24:26.176Z,48.39
2019-05-07T19:26:55.030Z,49.52
2019-05-07T19:29:24.514Z,50.41
2019-05-07T19:31:54.087Z,49.79
2019-05-07T19:34:23.732Z,50.36
2019-05-07T19:36:53.241Z,51.00
2019-05-07T19:39:23.365Z,50.39
2019-05-07T19:41:53.086Z,50.77
2019-05-07T19:44:22.654Z,51.38
2019-05-07T19:46:52.587Z,52.52
2019-05-07T19:49:22.114Z,51.69
2019-05-07T19:51:52.367Z,52.09
2019-05-07T19:54:22.759Z,52.40
2019-05-07T19:56:52.437Z,52.37
2019-05-07T19:59:22.362Z,52.12
2019-05-07T20:01:56.113Z,53.28
2019-05-07T20:04:25.676Z,53.41
2019-05-07T20:06:55.234Z,53.26
2019-05-07T20:09:26.379Z,53.56
2019-05-07T20:11:55.867Z,53.37
2019-05-07T20:14:25.413Z,53.50
2019-05-07T20:16:54.949Z,54.01
2019-05-07T20:19:24.468Z,54.12
2019-05-07T20:21:54.723Z,53.40
2019-05-07T20:24:24.271Z,54.32
2019-05-07T20:26:53.743Z,53.88
2019-05-07T20:29:23.263Z,54.41
2019-05-07T20:31:53.372Z,53.45
2019-05-07T20:34:22.991Z,53.75
2019-05-07T20:36:52.515Z,54.48
2019-05-07T20:39:23.256Z,54.72
2019-05-07T20:41:52.990Z,54.37
2019-05-07T20:44:22.453Z,54.81
2019-05-07T20:46:53.589Z,55.78
2019-05-07T20:49:23.176Z,55.33
2019-05-07T20:51:52.767Z,54.97
2019-05-07T20:54:23.913Z,54.57
2019-05-07T20:56:53.256Z,54.86
2019-05-07T20:59:22.890Z,54.68
2019-05-07T21:01:52.716Z,55.77
2019-05-07T21:04:22.438Z,54.61
2019-05-07T21:06:52.626Z,54.88
2019-05-07T21:09:22.281Z,55.64
2019-05-07T21:11:51.742Z,55.85
2019-05-07T21:14:22.770Z,54.98
2019-05-07T21:16:52.485Z,53.86
2019-05-07T21:19:22.426Z,54.54
2019-05-07T21:21:52.059Z,55.39
2019-05-07T21:24:22.550Z,55.91
2019-05-07T21:26:53.123Z,55.83
2019-05-07T21:29:22.942Z,56.07
2019-05-07T21:31:52.535Z,55.40
2019-05-07T21:34:22.996Z,55.86
2019-05-07T21:36:52.803Z,56.26
2019-05-07T21:39:22.471Z,56.28
2019-05-07T21:41:52.091Z,56.28
2019-05-07T21:44:22.747Z,55.68
2019-05-07T21:46:52.837Z,56.37
2019-05-07T21:49:22.939Z,56.82
2019-05-07T21:51:54.567Z,56.42
2019-05-07T21:54:25.531Z,56.08
2019-05-07T21:56:56.726Z,56.77
2019-05-07T21:59:33.511Z,56.67
2019-05-07T22:02:03.639Z,57.49
2019-05-07T22:04:33.216Z,57.57
2019-05-07T22:07:03.012Z,57.52
2019-05-07T22:09:33.074Z,56.52
2019-05-07T22:12:03.739Z,56.57
2019-05-07T22:14:33.459Z,57.13
2019-05-07T22:17:03.205Z,57.21
2019-05-07T22:19:33.869Z,56.87
2019-05-07T22:22:03.368Z,57.82
2019-05-07T22:24:32.984Z,57.68
2019-05-07T22:27:04.204Z,57.78
2019-05-07T22:29:33.862Z,57.33
2019-05-07T22:32:11.896Z,56.70
2019-05-07T22:34:43.082Z,57.19
2019-05-07T22:37:12.740Z,57.48
2019-05-07T22:39:42.292Z,57.12
2019-05-07T22:42:12.001Z,56.72
2019-05-07T22:44:42.566Z,56.48
2019-05-07T22:47:22.696Z,56.63
2019-05-07T22:49:53.529Z,57.04
2019-05-07T22:52:23.550Z,57.40
2019-05-07T22:54:53.024Z,58.07
2019-05-07T22:57:24.980Z,57.53
2019-05-07T22:59:54.475Z,56.47
2019-05-07T23:02:24.045Z,55.96
2019-05-07T23:04:53.555Z,56.18
2019-05-07T23:07:23.119Z,55.66
2019-05-07T23:09:52.647Z,55.08
2019-05-07T23:12:22.157Z,55.37
2019-05-07T23:14:53.658Z,55.20
2019-05-07T23:17:22.840Z,54.66
2019-05-07T23:19:55.078Z,54.57
2019-05-07T23:22:23.570Z,54.09
2019-05-07T23:24:53.065Z,54.24
2019-05-07T23:27:22.661Z,53.84
2019-05-07T23:29:52.873Z,53.29
2019-05-07T23:32:22.850Z,53.93
2019-05-07T23:34:52.843Z,53.02
2019-05-07T23:37:22.621Z,52.94
2019-05-07T23:39:53.945Z,52.83
2019-05-07T23:42:25.184Z,52.20
2019-05-07T23:44:54.676Z,52.59
2019-05-07T23:47:24.146Z,51.91
2019-05-07T23:49:53.716Z,52.07
2019-05-07T23:52:23.217Z,51.97
2019-05-07T23:54:52.679Z,51.49
2019-05-07T23:57:23.141Z,51.33
2019-05-07T23:59:53.080Z,51.01
